sensor_id;sensor_type;location;lat;lon;timestamp;P1;durP1;ratioP1;P2;durP2;ratioP2
56477;SDS011;42382;53.210;5.772;2023-03-03T00:00:30;5.43;;;1.48;;
56477;SDS011;42382;53.210;5.772;2023-03-03T00:02:57;9.88;;;2.90;;
56477;SDS011;42382;53.210;5.772;2023-03-03T00:05:26;15.05;;;5.70;;
56477;SDS011;42382;53.210;5.772;2023-03-03T00:07:52;13.88;;;6.18;;
56477;SDS011;42382;53.210;5.772;2023-03-03T00:10:17;13.20;;;6.75;;
56477;SDS011;42382;53.210;5.772;2023-03-03T00:12:46;9.23;;;4.88;;
56477;SDS011;42382;53.210;5.772;2023-03-03T00:15:18;8.68;;;3.65;;
56477;SDS011;42382;53.210;5.772;2023-03-03T00:17:48;7.30;;;3.08;;
56477;SDS011;42382;53.210;5.772;2023-03-03T00:20:34;4.95;;;2.72;;
56477;SDS011;42382;53.210;5.772;2023-03-03T00:26:01;3.13;;;1.73;;
56477;SDS011;42382;53.210;5.772;2023-03-03T00:28:42;3.13;;;0.90;;
56477;SDS011;42382;53.210;5.772;2023-03-03T00:31:16;3.60;;;1.38;;
56477;SDS011;42382;53.210;5.772;2023-03-03T00:33:48;2.35;;;0.70;;
56477;SDS011;42382;53.210;5.772;2023-03-03T00:39:28;5.80;;;1.27;;
56477;SDS011;42382;53.210;5.772;2023-03-03T00:42:01;3.78;;;1.17;;
56477;SDS011;42382;53.210;5.772;2023-03-03T00:49:55;3.08;;;0.80;;
56477;SDS011;42382;53.210;5.772;2023-03-03T00:52:49;4.65;;;1.13;;
56477;SDS011;42382;53.210;5.772;2023-03-03T00:55:29;2.50;;;0.70;;
56477;SDS011;42382;53.210;5.772;2023-03-03T00:57:56;5.47;;;1.35;;
56477;SDS011;42382;53.210;5.772;2023-03-03T01:00:21;2.97;;;0.60;;
56477;SDS011;42382;53.210;5.772;2023-03-03T01:02:47;10.00;;;1.00;;
56477;SDS011;42382;53.210;5.772;2023-03-03T01:05:13;4.22;;;0.80;;
56477;SDS011;42382;53.210;5.772;2023-03-03T01:07:40;3.08;;;0.80;;
56477;SDS011;42382;53.210;5.772;2023-03-03T01:10:06;5.07;;;0.50;;
56477;SDS011;42382;53.210;5.772;2023-03-03T01:12:33;4.07;;;0.68;;
56477;SDS011;42382;53.210;5.772;2023-03-03T01:14:58;3.60;;;0.75;;
56477;SDS011;42382;53.210;5.772;2023-03-03T01:17:24;1.98;;;0.52;;
56477;SDS011;42382;53.210;5.772;2023-03-03T08:08:50;5.57;;;1.30;;
56477;SDS011;42382;53.210;5.772;2023-03-03T08:11:16;6.68;;;1.00;;
56477;SDS011;42382;53.210;5.772;2023-03-03T08:13:42;7.25;;;1.40;;
56477;SDS011;42382;53.210;5.772;2023-03-03T08:18:38;6.43;;;0.95;;
56477;SDS011;42382;53.210;5.772;2023-03-03T08:21:18;4.65;;;1.00;;
56477;SDS011;42382;53.210;5.772;2023-03-03T08:23:45;7.13;;;0.75;;
56477;SDS011;42382;53.210;5.772;2023-03-03T08:26:13;6.03;;;0.63;;
56477;SDS011;42382;53.210;5.772;2023-03-03T08:28:39;1.77;;;0.50;;
56477;SDS011;42382;53.210;5.772;2023-03-03T08:31:05;6.25;;;0.90;;
56477;SDS011;42382;53.210;5.772;2023-03-03T08:33:30;8.52;;;0.77;;
56477;SDS011;42382;53.210;5.772;2023-03-03T08:35:56;6.00;;;0.50;;
56477;SDS011;42382;53.210;5.772;2023-03-03T08:38:21;9.00;;;0.80;;
56477;SDS011;42382;53.210;5.772;2023-03-03T08:40:47;6.45;;;0.52;;
56477;SDS011;42382;53.210;5.772;2023-03-03T08:43:14;5.57;;;0.35;;
56477;SDS011;42382;53.210;5.772;2023-03-03T08:45:46;4.90;;;0.60;;
56477;SDS011;42382;53.210;5.772;2023-03-03T08:48:16;4.60;;;0.30;;
56477;SDS011;42382;53.210;5.772;2023-03-03T08:50:42;2.97;;;0.40;;
56477;SDS011;42382;53.210;5.772;2023-03-03T08:53:08;2.45;;;0.40;;
56477;SDS011;42382;53.210;5.772;2023-03-03T08:55:35;5.50;;;0.43;;
56477;SDS011;42382;53.210;5.772;2023-03-03T08:58:00;7.32;;;0.40;;
56477;SDS011;42382;53.210;5.772;2023-03-03T09:00:26;3.33;;;0.60;;
56477;SDS011;42382;53.210;5.772;2023-03-03T09:02:52;3.47;;;0.28;;
56477;SDS011;42382;53.210;5.772;2023-03-03T09:05:18;7.07;;;0.30;;
56477;SDS011;42382;53.210;5.772;2023-03-03T09:07:44;4.05;;;0.10;;
56477;SDS011;42382;53.210;5.772;2023-03-03T09:10:12;4.35;;;0.60;;
56477;SDS011;42382;53.210;5.772;2023-03-03T09:12:40;4.15;;;0.30;;
56477;SDS011;42382;53.210;5.772;2023-03-03T09:15:15;4.57;;;0.43;;
56477;SDS011;42382;53.210;5.772;2023-03-03T09:17:47;3.15;;;0.22;;
56477;SDS011;42382;53.210;5.772;2023-03-03T09:22:59;3.33;;;0.63;;
56477;SDS011;42382;53.210;5.772;2023-03-03T09:25:58;5.25;;;0.35;;
56477;SDS011;42382;53.210;5.772;2023-03-03T09:28:46;2.40;;;0.10;;
56477;SDS011;42382;53.210;5.772;2023-03-03T09:31:33;6.70;;;1.35;;
56477;SDS011;42382;53.210;5.772;2023-03-03T09:34:15;4.05;;;0.20;;
56477;SDS011;42382;53.210;5.772;2023-03-03T09:36:58;1.08;;;0.10;;
56477;SDS011;42382;53.210;5.772;2023-03-03T09:39:24;1.27;;;0.10;;
56477;SDS011;42382;53.210;5.772;2023-03-03T09:42:03;3.90;;;0.10;;
56477;SDS011;42382;53.210;5.772;2023-03-03T09:53:10;4.10;;;0.17;;
56477;SDS011;42382;53.210;5.772;2023-03-03T10:06:07;3.40;;;0.10;;
56477;SDS011;42382;53.210;5.772;2023-03-03T10:14:20;4.07;;;0.10;;
56477;SDS011;42382;53.210;5.772;2023-03-03T10:17:21;2.50;;;0.20;;
56477;SDS011;42382;53.210;5.772;2023-03-03T10:33:44;3.30;;;0.10;;
56477;SDS011;42382;53.210;5.772;2023-03-03T10:55:05;3.35;;;0.20;;
56477;SDS011;42382;53.210;5.772;2023-03-03T11:00:32;2.58;;;0.25;;
56477;SDS011;42382;53.210;5.772;2023-03-03T11:08:23;4.38;;;0.20;;
56477;SDS011;42382;53.210;5.772;2023-03-03T11:13:42;4.53;;;0.90;;
56477;SDS011;42382;53.210;5.772;2023-03-03T11:16:16;3.03;;;0.40;;
56477;SDS011;42382;53.210;5.772;2023-03-03T11:21:55;4.82;;;0.82;;
56477;SDS011;42382;53.210;5.772;2023-03-03T11:33:14;4.43;;;0.68;;
56477;SDS011;42382;53.210;5.772;2023-03-03T11:38:37;7.93;;;1.17;;
56477;SDS011;42382;53.210;5.772;2023-03-03T11:41:29;4.18;;;0.30;;
56477;SDS011;42382;53.210;5.772;2023-03-03T11:46:57;6.43;;;0.60;;
56477;SDS011;42382;53.210;5.772;2023-03-03T11:57:49;8.32;;;0.45;;
56477;SDS011;42382;53.210;5.772;2023-03-03T12:00:22;5.07;;;0.63;;
56477;SDS011;42382;53.210;5.772;2023-03-03T12:03:07;10.38;;;0.45;;
56477;SDS011;42382;53.210;5.772;2023-03-03T17:46:53;20.30;;;3.70;;
